createdAt,value
2023-04-12T00:01:49.425Z,74.03
2023-04-12T00:04:55.638Z,74.41
2023-04-12T00:07:58.193Z,74.38
2023-04-12T00:11:02.569Z,74.54
2023-04-12T00:14:05.028Z,74.59
2023-04-12T00:17:07.722Z,74.89
2023-04-12T00:20:13.466Z,74.72
2023-04-12T00:23:17.334Z,74.87
2023-04-12T00:26:21.782Z,74.82
2023-04-12T00:29:24.786Z,74.69
2023-04-12T00:32:27.892Z,74.75
2023-04-12T00:35:30.481Z,74.98
2023-04-12T00:38:32.775Z,75.37
2023-04-12T00:41:37.389Z,75.63
2023-04-12T00:44:39.705Z,75.67
2023-04-12T00:47:45.479Z,75.62
2023-04-12T00:50:47.832Z,75.80
2023-04-12T00:53:50.715Z,75.88
2023-04-12T00:56:53.227Z,75.87
2023-04-12T00:59:56.104Z,75.92
2023-04-12T01:02:58.937Z,75.91
2023-04-12T01:06:09.597Z,75.85
2023-04-12T01:09:36.372Z,76.11
2023-04-12T01:12:42.294Z,76.31
2023-04-12T01:15:54.246Z,76.36
2023-04-12T01:19:03.783Z,76.49
2023-04-12T01:22:24.782Z,76.75
2023-04-12T01:25:45.955Z,76.66
2023-04-12T01:28:53.239Z,76.69
2023-04-12T01:32:05.013Z,76.60
2023-04-12T01:35:08.957Z,76.68
2023-04-12T01:38:11.819Z,76.66
2023-04-12T01:41:14.555Z,76.17
2023-04-12T01:44:18.048Z,76.32
2023-04-12T01:47:21.034Z,76.35
2023-04-12T01:50:32.154Z,76.39
2023-04-12T01:53:48.903Z,76.54
2023-04-12T01:56:57.808Z,76.53
2023-04-12T02:00:03.229Z,76.90
2023-04-12T02:03:18.444Z,76.87
2023-04-12T02:06:23.008Z,77.12
2023-04-12T02:09:27.809Z,77.43
2023-04-12T02:12:30.512Z,77.34
2023-04-12T02:15:33.568Z,77.36
2023-04-12T02:18:36.053Z,77.29
2023-04-12T02:21:44.086Z,77.45
2023-04-12T02:24:46.481Z,77.22
2023-04-12T02:27:49.169Z,77.01
2023-04-12T02:30:53.930Z,76.89
2023-04-12T02:33:57.406Z,76.87
2023-04-12T02:37:00.273Z,76.99
2023-04-12T02:40:07.260Z,77.01
2023-04-12T02:43:10.015Z,76.73
2023-04-12T02:46:21.648Z,76.12
2023-04-12T02:49:25.369Z,75.67
2023-04-12T02:52:29.937Z,75.74
2023-04-12T02:55:32.395Z,75.73
2023-04-12T02:58:36.333Z,75.57
2023-04-12T03:01:40.633Z,75.85
2023-04-12T03:04:46.876Z,75.89
2023-04-12T03:07:51.374Z,75.85
2023-04-12T03:10:54.234Z,75.65
2023-04-12T03:13:57.301Z,75.40
2023-04-12T03:17:00.144Z,75.27
2023-04-12T03:20:10.310Z,75.47
2023-04-12T03:23:13.366Z,75.36
2023-04-12T03:26:16.216Z,74.33
2023-04-12T03:29:22.115Z,73.73
2023-04-12T03:32:25.688Z,73.61
2023-04-12T03:35:30.346Z,73.69
2023-04-12T03:38:33.569Z,73.77
2023-04-12T03:41:36.330Z,73.76
2023-04-12T03:44:39.537Z,73.37
2023-04-12T03:47:42.730Z,73.05
2023-04-12T03:50:45.347Z,72.52
2023-04-12T03:53:49.322Z,72.66
2023-04-12T03:56:51.633Z,72.92
2023-04-12T03:59:55.317Z,73.22
2023-04-12T04:03:03.227Z,74.09
2023-04-12T04:06:07.616Z,74.30
2023-04-12T04:09:10.812Z,74.33
2023-04-12T04:12:13.809Z,74.18
2023-04-12T04:15:16.626Z,73.22
2023-04-12T04:18:19.509Z,73.14
2023-04-12T04:21:22.450Z,73.21
2023-04-12T04:24:26.567Z,73.08
2023-04-12T04:27:30.638Z,72.73
2023-04-12T04:30:39.041Z,72.22
2023-04-12T04:33:41.846Z,72.42
2023-04-12T04:36:44.509Z,71.74
2023-04-12T04:39:47.441Z,71.33
2023-04-12T04:42:57.760Z,71.05
2023-04-12T04:46:01.086Z,70.89
2023-04-12T04:49:04.645Z,70.35
2023-04-12T04:52:08.686Z,69.63
2023-04-12T04:55:11.778Z,68.97
2023-04-12T04:58:16.205Z,68.15
2023-04-12T05:01:25.806Z,68.80
2023-04-12T05:04:29.094Z,68.69
2023-04-12T05:07:31.909Z,68.94
2023-04-12T05:10:34.242Z,67.87
2023-04-12T05:13:37.177Z,67.85
2023-04-12T05:16:39.569Z,67.62
2023-04-12T05:19:44.842Z,66.05
2023-04-12T05:22:47.127Z,65.36
2023-04-12T05:25:50.131Z,64.91
2023-04-12T05:28:52.953Z,63.80
2023-04-12T05:31:55.979Z,63.52
2023-04-12T05:34:58.870Z,63.88
2023-04-12T05:38:02.071Z,63.43
2023-04-12T05:41:05.651Z,63.47
2023-04-12T05:44:08.900Z,62.93
2023-04-12T05:47:12.655Z,62.78
2023-04-12T05:50:15.729Z,62.34
2023-04-12T05:53:19.085Z,61.94
2023-04-12T05:56:21.747Z,60.21
2023-04-12T05:59:24.200Z,58.76
2023-04-12T06:02:27.564Z,57.40
2023-04-12T06:05:30.460Z,57.78
2023-04-12T06:08:34.458Z,57.66
2023-04-12T06:11:39.367Z,57.52
2023-04-12T06:14:42.445Z,57.82
2023-04-12T06:17:45.367Z,57.57
2023-04-12T06:20:47.825Z,57.43
2023-04-12T06:23:50.580Z,57.07
2023-04-12T06:26:53.283Z,56.39
2023-04-12T06:29:56.699Z,55.98
2023-04-12T06:32:59.658Z,55.48
2023-04-12T06:36:02.832Z,55.30
2023-04-12T06:39:05.229Z,54.77
2023-04-12T06:42:07.965Z,54.61
2023-04-12T06:45:11.700Z,54.30
2023-04-12T06:48:14.353Z,55.52
2023-04-12T06:51:17.328Z,55.77
2023-04-12T06:54:19.979Z,54.43
2023-04-12T06:57:22.461Z,53.61
2023-04-12T07:00:25.439Z,53.56
2023-04-12T07:03:31.475Z,53.06
2023-04-12T07:06:34.415Z,53.14
2023-04-12T07:09:36.703Z,52.65
2023-04-12T07:12:39.414Z,51.86
2023-04-12T07:15:41.718Z,51.65
2023-04-12T07:18:44.579Z,51.80
2023-04-12T07:21:46.969Z,52.67
2023-04-12T07:24:50.797Z,52.17
2023-04-12T07:27:53.121Z,51.64
2023-04-12T07:30:55.951Z,51.89
2023-04-12T07:33:58.359Z,52.11
2023-04-12T07:37:01.328Z,51.97
2023-04-12T07:40:04.230Z,51.93
2023-04-12T07:43:06.929Z,51.20
2023-04-12T07:46:09.390Z,50.85
2023-04-12T07:49:12.006Z,50.66
2023-04-12T07:52:14.526Z,50.67
2023-04-12T07:55:17.336Z,51.17
2023-04-12T07:58:21.540Z,51.72
2023-04-12T08:01:24.166Z,51.26
2023-04-12T08:04:28.375Z,51.08
2023-04-12T08:07:30.877Z,50.67
2023-04-12T08:10:34.714Z,50.70
2023-04-12T08:13:37.262Z,50.96
2023-04-12T08:16:39.854Z,50.53
2023-04-12T08:19:42.207Z,51.04
2023-04-12T08:22:46.774Z,49.83
2023-04-12T08:25:49.070Z,49.49
2023-04-12T08:28:51.689Z,48.34
2023-04-12T08:31:56.293Z,48.74
2023-04-12T08:34:58.999Z,48.02
2023-04-12T08:38:07.377Z,47.34
2023-04-12T08:41:09.970Z,46.11
2023-04-12T08:44:12.759Z,46.36
2023-04-12T08:47:16.948Z,46.67
2023-04-12T08:50:21.255Z,45.22
2023-04-12T08:53:24.093Z,45.18
2023-04-12T08:56:27.373Z,44.44
2023-04-12T08:59:30.998Z,44.63
2023-04-12T09:02:36.216Z,44.23
2023-04-12T09:05:39.018Z,44.12
2023-04-12T09:08:57.283Z,43.72
2023-04-12T09:12:08.017Z,42.57
2023-04-12T09:15:15.581Z,42.64
2023-04-12T09:18:18.714Z,42.62
2023-04-12T09:21:21.099Z,42.00
2023-04-12T09:24:26.331Z,42.20
2023-04-12T09:27:29.707Z,42.19
2023-04-12T09:30:42.278Z,41.95
2023-04-12T09:33:46.132Z,41.77
2023-04-12T09:36:48.764Z,42.20
2023-04-12T09:40:06.063Z,41.82
2023-04-12T09:43:08.725Z,41.27
2023-04-12T09:46:14.871Z,39.91
2023-04-12T09:49:17.674Z,40.82
2023-04-12T09:52:20.006Z,40.48
2023-04-12T09:55:25.410Z,39.68
2023-04-12T09:58:30.609Z,39.46
2023-04-12T10:01:39.139Z,40.25
2023-04-12T10:04:42.747Z,40.25
2023-04-12T10:07:46.486Z,38.35
2023-04-12T10:10:49.242Z,38.30
2023-04-12T10:13:52.060Z,39.19
2023-04-12T10:16:58.840Z,40.69
2023-04-12T10:20:02.857Z,41.00
2023-04-12T10:23:06.661Z,38.96
2023-04-12T10:26:09.079Z,40.18
2023-04-12T10:29:37.077Z,37.84
2023-04-12T10:32:39.592Z,37.57
2023-04-12T10:36:10.943Z,37.51
2023-04-12T10:39:15.266Z,37.52
2023-04-12T10:42:27.096Z,36.03
2023-04-12T10:45:33.953Z,36.07
2023-04-12T10:48:50.927Z,35.64
2023-04-12T10:52:02.727Z,35.27
2023-04-12T10:55:28.196Z,35.33
2023-04-12T10:58:49.236Z,35.23
2023-04-12T11:02:05.193Z,37.18
2023-04-12T11:05:10.423Z,36.61
2023-04-12T11:08:20.346Z,35.79
2023-04-12T11:11:27.106Z,35.96
2023-04-12T11:14:43.651Z,34.23
2023-04-12T11:17:57.322Z,34.24
2023-04-12T11:21:00.490Z,34.83
2023-04-12T11:24:03.103Z,34.74
2023-04-12T11:27:06.292Z,36.63
2023-04-12T11:30:09.460Z,35.31
2023-04-12T11:33:12.389Z,34.20
2023-04-12T11:36:14.910Z,34.03
2023-04-12T11:39:18.720Z,33.04
2023-04-12T11:42:24.463Z,33.15
2023-04-12T11:45:29.534Z,33.77
2023-04-12T11:48:32.660Z,33.79
2023-04-12T11:51:35.887Z,31.81
2023-04-12T11:54:38.609Z,30.78
2023-04-12T11:57:41.296Z,32.08
2023-04-12T12:00:46.718Z,32.23
2023-04-12T12:03:49.907Z,31.98
2023-04-12T12:06:53.272Z,32.15
2023-04-12T12:09:56.464Z,31.48
2023-04-12T12:12:58.814Z,30.95
2023-04-12T12:16:01.611Z,28.93
2023-04-12T12:19:05.099Z,28.79
2023-04-12T12:22:18.678Z,30.35
2023-04-12T12:25:22.968Z,30.74
2023-04-12T12:28:25.780Z,31.12
2023-04-12T12:31:28.801Z,31.32
2023-04-12T12:34:34.379Z,30.39
2023-04-12T12:37:36.912Z,29.97
2023-04-12T12:40:39.973Z,29.97
2023-04-12T12:43:50.344Z,29.43
2023-04-12T12:46:58.712Z,29.21
2023-04-12T12:50:06.005Z,28.46
2023-04-12T12:53:10.318Z,28.52
2023-04-12T12:56:13.782Z,29.55
2023-04-12T12:59:16.456Z,29.96
2023-04-12T13:02:19.906Z,29.29
2023-04-12T13:05:23.414Z,29.07
2023-04-12T13:08:26.952Z,29.28
2023-04-12T13:11:29.619Z,28.30
2023-04-12T13:14:32.054Z,27.64
2023-04-12T13:17:34.762Z,27.16
2023-04-12T13:20:37.120Z,28.24
2023-04-12T13:23:39.779Z,28.39
2023-04-12T13:26:43.396Z,27.95
2023-04-12T13:29:46.144Z,27.97
2023-04-12T13:32:48.581Z,28.23
2023-04-12T13:35:51.457Z,28.87
2023-04-12T13:38:53.732Z,29.37
2023-04-12T13:41:56.466Z,29.36
2023-04-12T13:44:58.856Z,29.88
2023-04-12T13:48:02.518Z,30.01
2023-04-12T13:51:05.040Z,29.96
2023-04-12T13:54:07.778Z,29.03
2023-04-12T13:57:10.428Z,28.80
2023-04-12T14:00:14.148Z,28.82
2023-04-12T14:03:16.782Z,28.90
2023-04-12T14:06:19.204Z,28.74
2023-04-12T14:09:26.000Z,28.38
2023-04-12T14:12:28.395Z,29.26
2023-04-12T14:15:30.923Z,29.54
2023-04-12T14:18:33.298Z,29.26
2023-04-12T14:21:36.492Z,29.59
2023-04-12T14:24:40.118Z,28.68
2023-04-12T14:27:42.806Z,28.80
2023-04-12T14:30:45.240Z,28.57
2023-04-12T14:33:48.038Z,28.80
2023-04-12T14:36:50.367Z,29.02
2023-04-12T14:39:55.806Z,28.62
2023-04-12T14:42:58.111Z,27.61
2023-04-12T14:46:00.828Z,27.03
2023-04-12T14:49:03.321Z,26.86
2023-04-12T14:52:06.927Z,26.56
2023-04-12T14:55:10.786Z,26.75
2023-04-12T14:58:13.671Z,26.57
2023-04-12T15:01:18.283Z,26.88
2023-04-12T15:04:21.451Z,27.61
2023-04-12T15:07:23.982Z,28.03
2023-04-12T15:10:26.892Z,27.56
2023-04-12T15:13:34.083Z,27.67
2023-04-12T15:16:38.252Z,28.21
2023-04-12T15:19:40.780Z,28.05
2023-04-12T15:22:44.563Z,28.22
2023-04-12T15:25:47.553Z,28.18
2023-04-12T15:28:50.156Z,28.50
2023-04-12T15:31:52.655Z,28.35
2023-04-12T15:34:56.336Z,28.37
2023-04-12T15:37:59.626Z,28.09
2023-04-12T15:41:02.622Z,28.13
2023-04-12T15:44:05.972Z,28.26
2023-04-12T15:47:11.414Z,27.98
2023-04-12T15:50:14.874Z,27.96
2023-04-12T15:53:20.467Z,26.94
2023-04-12T15:56:25.628Z,26.38
2023-04-12T15:59:30.080Z,27.01
2023-04-12T16:02:33.633Z,27.39
2023-04-12T16:05:36.806Z,27.29
2023-04-12T16:08:39.239Z,27.81
2023-04-12T16:11:43.736Z,27.80
2023-04-12T16:14:46.399Z,27.64
2023-04-12T16:17:51.926Z,27.54
2023-04-12T16:20:54.549Z,27.91
2023-04-12T16:23:57.450Z,28.50
2023-04-12T16:27:00.653Z,28.32
2023-04-12T16:30:05.584Z,28.50
2023-04-12T16:33:08.130Z,28.80
2023-04-12T16:36:10.981Z,28.90
2023-04-12T16:39:13.656Z,29.15
2023-04-12T16:42:16.751Z,29.75
2023-04-12T16:45:19.821Z,30.05
2023-04-12T16:48:23.077Z,30.36
2023-04-12T16:51:26.522Z,30.29
2023-04-12T16:54:29.964Z,30.53
2023-04-12T16:57:33.033Z,30.07
2023-04-12T17:00:37.238Z,30.18
2023-04-12T17:03:40.001Z,29.83
2023-04-12T17:06:44.319Z,29.93
2023-04-12T17:09:46.939Z,30.22
2023-04-12T17:12:57.905Z,30.24
2023-04-12T17:16:00.899Z,29.74
2023-04-12T17:19:04.136Z,29.55
2023-04-12T17:22:07.130Z,29.60
2023-04-12T17:25:10.932Z,29.90
2023-04-12T17:28:13.484Z,30.21
2023-04-12T17:31:17.344Z,30.27
2023-04-12T17:34:20.038Z,30.34
2023-04-12T17:37:24.159Z,30.55
2023-04-12T17:40:27.214Z,30.80
2023-04-12T17:43:30.346Z,31.67
2023-04-12T17:46:34.422Z,31.55
2023-04-12T17:49:37.434Z,31.43
2023-04-12T17:52:40.686Z,31.43
2023-04-12T17:55:43.506Z,31.71
2023-04-12T17:58:46.100Z,32.10
2023-04-12T18:01:49.232Z,31.90
2023-04-12T18:04:52.253Z,32.66
2023-04-12T18:07:57.105Z,32.64
2023-04-12T18:11:00.786Z,32.82
2023-04-12T18:14:03.678Z,32.68
2023-04-12T18:17:08.322Z,32.73
2023-04-12T18:20:11.555Z,32.59
2023-04-12T18:23:15.407Z,32.63
2023-04-12T18:26:18.364Z,32.72
2023-04-12T18:29:22.030Z,33.07
2023-04-12T18:32:25.078Z,32.96
2023-04-12T18:35:28.322Z,33.36
2023-04-12T18:38:35.682Z,34.15
2023-04-12T18:41:40.974Z,34.65
2023-04-12T18:44:44.906Z,35.13
2023-04-12T18:47:47.952Z,35.47
2023-04-12T18:50:51.122Z,35.68
2023-04-12T18:53:54.197Z,35.86
2023-04-12T18:57:03.155Z,35.95
2023-04-12T19:00:18.532Z,36.03
2023-04-12T19:03:33.672Z,35.69
2023-04-12T19:07:07.736Z,35.79
2023-04-12T19:10:13.786Z,35.69
2023-04-12T19:13:16.920Z,35.87
2023-04-12T19:16:32.336Z,36.04
2023-04-12T19:19:46.424Z,36.16
2023-04-12T19:22:50.271Z,36.34
2023-04-12T19:25:55.663Z,36.76
2023-04-12T19:29:06.369Z,36.59
2023-04-12T19:32:14.552Z,36.92
2023-04-12T19:35:20.526Z,36.96
2023-04-12T19:38:25.141Z,37.12
2023-04-12T19:41:30.436Z,37.47
2023-04-12T19:44:33.763Z,37.84
2023-04-12T19:47:36.796Z,38.11
2023-04-12T19:50:41.745Z,38.89
2023-04-12T19:53:47.910Z,39.15
2023-04-12T19:56:57.870Z,39.74
2023-04-12T20:00:02.130Z,40.24
2023-04-12T20:03:08.816Z,40.58
2023-04-12T20:06:12.504Z,40.74
2023-04-12T20:09:16.451Z,40.59
2023-04-12T20:12:21.407Z,40.83
2023-04-12T20:15:24.804Z,41.46
2023-04-12T20:18:31.849Z,41.50
2023-04-12T20:21:38.147Z,42.15
2023-04-12T20:24:45.216Z,42.60
2023-04-12T20:27:52.525Z,42.63
2023-04-12T20:31:00.587Z,42.68
2023-04-12T20:34:04.397Z,42.73
2023-04-12T20:37:08.313Z,43.03
2023-04-12T20:40:16.062Z,43.20
2023-04-12T20:43:27.453Z,43.53
2023-04-12T20:46:31.558Z,43.97
2023-04-12T20:49:42.815Z,44.17
2023-04-12T20:52:46.211Z,43.98
2023-04-12T20:55:53.591Z,43.97
2023-04-12T20:59:03.255Z,44.43
2023-04-12T21:02:17.010Z,45.07
2023-04-12T21:05:24.906Z,45.53
2023-04-12T21:08:41.816Z,45.54
2023-04-12T21:11:52.710Z,45.58
2023-04-12T21:15:01.103Z,45.39
2023-04-12T21:18:05.600Z,45.24
2023-04-12T21:22:15.580Z,44.68
2023-04-12T21:25:06.175Z,44.80
2023-04-12T21:28:16.984Z,45.17
2023-04-12T21:31:20.474Z,45.44
2023-04-12T21:34:52.628Z,45.61
2023-04-12T21:37:59.644Z,45.71
2023-04-12T21:41:09.470Z,45.91
2023-04-12T21:44:14.015Z,45.77
2023-04-12T21:47:23.121Z,45.89
2023-04-12T21:50:31.483Z,45.51
2023-04-12T21:53:37.113Z,46.09
2023-04-12T21:56:48.669Z,45.86
2023-04-12T22:00:01.173Z,45.52
2023-04-12T22:03:15.249Z,45.58
2023-04-12T22:09:47.662Z,46.02
2023-04-12T22:13:02.415Z,46.74
2023-04-12T22:16:14.246Z,47.85
2023-04-12T22:19:26.153Z,49.45
2023-04-12T22:22:44.357Z,50.66
2023-04-12T22:25:47.730Z,51.43
2023-04-12T22:29:08.663Z,51.10
2023-04-12T22:32:17.723Z,51.06
2023-04-12T22:35:27.537Z,50.84
2023-04-12T22:38:50.143Z,50.35
2023-04-12T22:42:02.500Z,49.62
2023-04-12T22:45:15.982Z,49.72
2023-04-12T22:48:26.640Z,49.66
2023-04-12T22:52:23.886Z,50.41
2023-04-12T22:55:01.621Z,50.64
2023-04-12T22:58:11.113Z,50.20
2023-04-12T23:01:15.612Z,49.50
2023-04-12T23:04:23.569Z,49.86
2023-04-12T23:11:25.356Z,50.78
2023-04-12T23:14:30.228Z,50.18
2023-04-12T23:17:32.911Z,50.51
2023-04-12T23:20:55.271Z,51.27
2023-04-12T23:24:00.857Z,51.79
2023-04-12T23:27:04.655Z,51.59
2023-04-12T23:30:20.954Z,51.42
2023-04-12T23:33:25.343Z,51.24
2023-04-12T23:36:29.058Z,51.59
2023-04-12T23:39:31.795Z,51.83
2023-04-12T23:42:35.827Z,51.65
2023-04-12T23:45:38.642Z,51.61
2023-04-12T23:48:41.530Z,50.95
2023-04-12T23:51:44.270Z,50.60
2023-04-12T23:54:46.912Z,50.44
2023-04-12T23:57:49.602Z,50.60
